Time;durP1;ratioP1;P1;durP2;ratioP2;P2;SDS_P1;SDS_P2;PMS_P1;PMS_P2;Temp;Humidity;BMP_temperature;BMP_pressure;BME280_temperature;BME280_humidity;BME280_pressure;Samples;Min_cycle;Max_cycle;Signal;HPM_P1;HPM_P2
2024/03/29 00:02:13;;;;;;;2.40;1.20;;;;;;;10.39;63.58;97601.62;239091;180;152181;-56
2024/03/29 00:07:16;;;;;;;1.30;0.90;;;;;;;10.34;63.77;97622.48;239064;180;137593;-55
2024/03/29 00:12:19;;;;;;;1.60;1.00;;;;;;;10.19;64.33;97637.67;239134;180;136440;-54
2024/03/29 00:17:22;;;;;;;3.00;0.70;;;;;;;10.11;64.40;97647.91;239063;180;151371;-55
2024/03/29 00:22:25;;;;;;;1.50;0.90;;;;;;;10.11;64.93;97655.20;239051;180;136800;-56
2024/03/29 00:27:28;;;;;;;2.40;1.10;;;;;;;10.21;65.26;97665.54;239178;180;137611;-54
2024/03/29 00:32:31;;;;;;;3.20;1.40;;;;;;;10.30;65.46;97669.41;239151;180;152230;-54
2024/03/29 00:37:34;;;;;;;3.10;1.50;;;;;;;10.36;65.58;97679.71;239139;180;137498;-57
2024/03/29 00:42:37;;;;;;;2.60;1.70;;;;;;;10.34;65.59;97687.52;239173;180;136668;-56
2024/03/29 00:47:40;;;;;;;3.10;1.70;;;;;;;10.32;65.82;97701.49;239183;180;151230;-56
2024/03/29 00:52:43;;;;;;;2.60;1.80;;;;;;;10.32;65.85;97705.06;239142;180;136415;-55
2024/03/29 00:57:46;;;;;;;3.80;1.70;;;;;;;10.29;65.87;97719.70;239197;180;137289;-55
2024/03/29 01:02:49;;;;;;;3.20;1.40;;;;;;;10.32;65.70;97731.11;239227;180;151659;-55
2024/03/29 01:07:52;;;;;;;2.30;1.50;;;;;;;10.31;65.54;97749.95;239122;180;136425;-56
2024/03/29 01:12:55;;;;;;;4.30;1.60;;;;;;;10.29;65.58;97759.71;239238;180;136750;-54
2024/03/29 01:17:58;;;;;;;3.30;1.50;;;;;;;10.28;65.55;97776.79;239213;180;151377;-56
2024/03/29 01:23:02;;;;;;;3.70;2.00;;;;;;;10.27;65.70;97785.23;239174;180;136495;-56
2024/03/29 01:28:06;;;;;;;3.20;1.60;;;;;;;10.18;66.27;97796.91;239147;180;137309;-53
2024/03/29 01:33:09;;;;;;;4.00;1.90;;;;;;;10.14;66.49;97797.23;239127;180;152720;-54
2024/03/29 01:38:12;;;;;;;3.20;1.90;;;;;;;10.11;66.85;97805.83;239177;180;136466;-53
2024/03/29 01:43:15;;;;;;;5.70;1.90;;;;;;;10.12;66.96;97814.77;239066;180;137315;-56
2024/03/29 01:48:18;;;;;;;3.40;1.90;;;;;;;10.09;67.23;97826.32;239156;180;151390;-55
2024/03/29 01:53:26;;;;;;;2.80;1.60;;;;;;;10.06;67.39;97838.34;239190;180;136826;-61
2024/03/29 01:58:29;;;;;;;2.90;1.60;;;;;;;10.04;67.49;97859.86;239141;180;139788;-55
2024/03/29 02:03:32;;;;;;;3.90;1.90;;;;;;;10.06;67.66;97871.58;239171;178;152985;-55
2024/03/29 02:08:35;;;;;;;3.80;1.70;;;;;;;10.15;67.59;97885.05;239133;180;138002;-56
2024/03/29 02:13:40;;;;;;;4.70;2.10;;;;;;;10.16;67.40;97904.14;239214;180;139026;-56
2024/03/29 02:18:43;;;;;;;3.70;1.60;;;;;;;10.15;67.47;97919.45;239129;180;151198;-54
2024/03/29 02:23:50;;;;;;;2.70;1.60;;;;;;;10.09;67.35;97941.04;239168;180;136671;-56
2024/03/29 02:28:53;;;;;;;2.40;1.50;;;;;;;10.06;67.31;97953.84;239179;179;137984;-56
2024/03/29 02:33:56;;;;;;;3.30;1.70;;;;;;;9.99;67.36;97979.34;239205;180;151737;-55
2024/03/29 02:38:59;;;;;;;3.80;1.50;;;;;;;9.92;67.24;97987.50;239158;180;137053;-56
2024/03/29 02:44:02;;;;;;;3.90;1.50;;;;;;;9.81;67.27;97998.28;239201;180;137799;-56
2024/03/29 02:49:05;;;;;;;3.90;1.60;;;;;;;9.86;66.84;98012.06;239168;180;152306;-54
2024/03/29 02:54:08;;;;;;;3.20;1.80;;;;;;;9.88;66.52;98012.24;239198;180;137105;-54
2024/03/29 02:59:11;;;;;;;3.70;1.60;;;;;;;9.87;66.06;98009.67;239186;180;137334;-54
2024/03/29 03:04:14;;;;;;;2.20;1.40;;;;;;;9.80;65.92;98012.89;239173;180;151225;-55
2024/03/29 03:14:41;;;;;;;3.00;1.30;;;;;;;9.71;65.64;98031.42;239223;180;139087;-55
2024/03/29 03:19:44;;;;;;;;;;;;;;;9.67;65.24;98048.20;239170;180;151178;-55
2024/03/29 03:24:47;;;;;;;2.80;1.40;;;;;;;9.63;64.96;98062.69;239276;180;135525;-56
2024/03/29 03:29:51;;;;;;;2.90;1.10;;;;;;;9.55;64.93;98081.52;239150;180;137298;-56
2024/03/29 03:34:54;;;;;;;2.30;1.30;;;;;;;9.53;64.76;98084.81;239173;180;152032;-55
2024/03/29 03:39:57;;;;;;;1.80;1.30;;;;;;;9.53;64.59;98088.17;239127;180;138553;-57
2024/03/29 03:45:00;;;;;;;1.90;1.20;;;;;;;9.51;64.44;98094.90;239162;180;137240;-56
2024/03/29 03:50:03;;;;;;;2.20;1.10;;;;;;;9.49;64.16;98087.78;239207;176;151809;-55
2024/03/29 03:55:07;;;;;;;2.10;0.90;;;;;;;9.42;63.91;98090.55;239156;180;137179;-55
2024/03/29 04:00:10;;;;;;;2.60;1.20;;;;;;;9.42;63.79;98097.64;239139;180;137238;-56
2024/03/29 04:05:14;;;;;;;3.50;1.20;;;;;;;9.43;63.68;98101.98;239044;180;151234;-55
2024/03/29 04:10:17;;;;;;;1.50;1.00;;;;;;;9.45;63.55;98100.29;239097;180;140495;-56
2024/03/29 04:15:20;;;;;;;2.40;1.10;;;;;;;9.46;63.21;98107.45;239194;176;137445;-56
2024/03/29 04:20:23;;;;;;;2.00;1.20;;;;;;;9.47;63.05;98114.28;239166;180;152208;-57
2024/03/29 04:25:26;;;;;;;6.10;1.30;;;;;;;9.49;62.95;98118.38;239140;180;138481;-54
2024/03/29 04:30:29;;;;;;;2.00;1.10;;;;;;;9.51;62.71;98127.25;239221;180;139073;-54
2024/03/29 04:35:32;;;;;;;3.50;1.30;;;;;;;9.54;62.69;98131.32;239171;180;152224;-55
2024/03/29 04:40:35;;;;;;;2.80;1.20;;;;;;;9.54;62.47;98122.48;239180;176;136587;-56
2024/03/29 04:45:38;;;;;;;14.40;11.60;;;;;;;9.58;63.24;98128.20;239192;179;136548;-56
2024/03/29 04:50:42;;;;;;;3.40;1.60;;;;;;;9.66;62.48;98133.23;239179;180;151961;-57
2024/03/29 04:55:47;;;;;;;45.60;31.40;;;;;;;9.70;62.26;98149.42;239146;180;137440;-56
2024/03/29 05:00:51;;;;;;;3.30;2.40;;;;;;;9.76;62.13;98150.48;239201;180;137132;-56
2024/03/29 05:05:55;;;;;;;2.40;1.30;;;;;;;9.80;61.75;98154.73;239120;180;151780;-56
2024/03/29 05:10:58;;;;;;;3.40;1.30;;;;;;;9.81;61.56;98168.14;239083;180;136595;-55
2024/03/29 05:16:01;;;;;;;187.20;124.80;;;;;;;9.83;61.45;98172.10;239214;180;137282;-55
2024/03/29 05:21:04;;;;;;;5.40;2.90;;;;;;;9.84;61.81;98156.35;239234;180;151364;-57
2024/03/29 05:26:07;;;;;;;5.70;2.00;;;;;;;9.89;61.32;98169.70;239190;180;137086;-57
2024/03/29 05:31:14;;;;;;;4.00;1.80;;;;;;;9.91;61.14;98170.96;239255;180;137359;-56
2024/03/29 05:36:18;;;;;;;23.80;16.40;;;;;;;9.92;61.43;98163.60;239172;180;151120;-56
2024/03/29 05:41:21;;;;;;;5.80;1.90;;;;;;;9.97;61.08;98190.55;239129;176;136887;-55
2024/03/29 05:46:24;;;;;;;9.60;1.60;;;;;;;10.01;60.85;98204.97;239170;180;136845;-56
2024/03/29 05:51:27;;;;;;;4.20;1.40;;;;;;;10.07;60.42;98218.14;239171;180;151411;-55
2024/03/29 05:56:30;;;;;;;4.00;1.30;;;;;;;10.15;59.99;98231.04;239110;180;136611;-54
2024/03/29 06:01:33;;;;;;;5.70;1.30;;;;;;;10.22;59.38;98221.84;239172;180;137697;-56
2024/03/29 06:06:37;;;;;;;6.80;2.30;;;;;;;10.32;59.05;98234.59;239118;180;151047;-59
2024/03/29 06:11:40;;;;;;;5.70;1.50;;;;;;;10.40;58.83;98231.52;239162;180;138079;-56
2024/03/29 06:22:04;;;;;;;5.80;1.20;;;;;;;10.64;58.21;98230.66;239036;180;153239;-54
2024/03/29 06:27:07;;;;;;;5.90;1.30;;;;;;;10.71;58.03;98232.23;239059;180;139611;-54
2024/03/29 06:32:10;;;;;;;7.00;1.40;;;;;;;10.79;57.42;98247.41;239156;180;137728;-55
2024/03/29 06:37:14;;;;;;;4.20;1.20;;;;;;;10.90;57.46;98256.89;239170;176;151906;-56
2024/03/29 06:42:17;;;;;;;2.80;1.50;;;;;;;11.05;57.19;98248.74;239170;180;137848;-55
2024/03/29 06:47:20;;;;;;;3.80;1.20;;;;;;;11.18;56.85;98240.20;239160;176;137781;-56
2024/03/29 06:52:23;;;;;;;2.20;1.40;;;;;;;11.36;56.37;98227.59;239142;180;151389;-55
2024/03/29 06:57:30;;;;;;;2.60;1.10;;;;;;;11.53;55.63;98230.45;239122;180;137683;-52
2024/03/29 07:02:34;;;;;;;3.20;0.90;;;;;;;11.71;54.96;98228.16;239176;180;136865;-56
2024/03/29 07:07:40;;;;;;;5.30;1.20;;;;;;;11.86;55.01;98226.65;239116;180;151943;-55
2024/03/29 07:12:42;;;;;;;2.40;0.90;;;;;;;12.02;54.48;98231.77;239053;179;137115;-56
2024/03/29 07:17:50;;;;;;;1.60;0.70;;;;;;;12.20;54.09;98234.61;239168;180;138602;-55
2024/03/29 07:22:53;;;;;;;1.80;0.70;;;;;;;12.38;52.83;98228.34;239161;180;151596;-55
2024/03/29 07:27:56;;;;;;;1.60;0.60;;;;;;;12.55;52.13;98224.02;239083;180;137756;-55
2024/03/29 07:32:59;;;;;;;1.90;0.70;;;;;;;12.74;51.30;98210.16;239136;180;137378;-54
2024/03/29 07:38:02;;;;;;;1.90;0.80;;;;;;;12.92;50.56;98176.04;239049;180;151788;-57
2024/03/29 07:43:05;;;;;;;2.00;0.60;;;;;;;13.13;50.44;98162.83;239103;180;137119;-57
2024/03/29 07:48:11;;;;;;;3.90;1.30;;;;;;;13.29;49.78;98176.77;239161;178;136657;-58
2024/03/29 07:53:14;;;;;;;3.50;1.50;;;;;;;13.45;49.65;98181.31;239149;180;272165;-59
2024/03/29 07:58:18;;;;;;;2.00;0.90;;;;;;;13.60;49.04;98184.45;239038;180;137466;-58
2024/03/29 08:03:20;;;;;;;1.30;0.90;;;;;;;13.75;48.44;98206.46;239187;180;136710;-59
2024/03/29 08:08:25;;;;;;;3.30;1.00;;;;;;;13.94;48.05;98220.45;239140;180;151675;-60
2024/03/29 08:13:28;;;;;;;1.90;0.80;;;;;;;14.16;47.07;98219.02;239038;180;137868;-60
2024/03/29 08:18:31;;;;;;;3.40;0.80;;;;;;;14.29;45.91;98215.52;239075;180;136731;-60
2024/03/29 08:23:36;;;;;;;1.70;1.10;;;;;;;14.44;43.15;98216.66;239006;180;151953;-60
2024/03/29 08:28:39;;;;;;;2.10;0.60;;;;;;;14.55;41.84;98228.90;239098;180;136947;-59
2024/03/29 08:33:44;;;;;;;4.20;0.90;;;;;;;14.59;40.97;98233.91;239073;180;137036;-60
2024/03/29 08:39:03;;;;;;;2.20;1.00;;;;;;;14.73;41.82;98239.90;239090;180;151920;-60
2024/03/29 08:44:07;;;;;;;1.70;0.70;;;;;;;14.79;40.55;98234.20;239098;180;136520;-59
2024/03/29 08:49:10;;;;;;;4.70;2.20;;;;;;;14.88;40.17;98236.77;238614;180;138158;-59
2024/03/29 08:54:13;;;;;;;1.90;0.80;;;;;;;14.97;39.98;98232.32;239044;176;152775;-60
2024/03/29 08:59:16;;;;;;;3.10;0.80;;;;;;;15.08;39.81;98236.33;239111;180;136751;-59
2024/03/29 09:04:20;;;;;;;1.40;0.70;;;;;;;15.24;39.14;98248.05;239142;180;137606;-60
2024/03/29 09:09:23;;;;;;;0.90;0.50;;;;;;;15.34;38.15;98249.27;239109;180;151107;-59
2024/03/29 09:14:26;;;;;;;2.60;0.50;;;;;;;15.45;37.38;98247.86;239125;180;137424;-59
2024/03/29 09:19:33;;;;;;;0.70;0.50;;;;;;;15.62;37.11;98251.77;239091;180;137230;-60
2024/03/29 09:24:36;;;;;;;2.50;0.80;;;;;;;15.77;36.99;98251.83;239060;180;151285;-60
2024/03/29 09:29:39;;;;;;;7.50;5.20;;;;;;;15.92;36.68;98251.59;239121;180;136671;-60
2024/03/29 09:34:42;;;;;;;4.80;0.90;;;;;;;16.09;35.83;98254.59;239201;180;140169;-59
2024/03/29 09:39:45;;;;;;;0.90;0.30;;;;;;;16.13;34.86;98252.96;239080;180;151530;-60
2024/03/29 09:44:50;;;;;;;12.10;1.10;;;;;;;16.18;35.32;98254.96;239016;180;136836;-59
2024/03/29 09:49:54;;;;;;;3.80;0.60;;;;;;;16.35;35.24;98257.41;239145;180;137039;-59
2024/03/29 09:54:59;;;;;;;1.30;0.60;;;;;;;16.50;35.39;98257.58;239142;180;153766;-59
2024/03/29 10:00:04;;;;;;;;;;;;;;;16.64;35.04;98247.23;239324;180;136569;-58
2024/03/29 10:05:08;;;;;;;1.70;0.50;;;;;;;16.86;33.99;98245.45;239081;180;135541;-59
2024/03/29 10:10:11;;;;;;;1.30;0.50;;;;;;;17.05;33.25;98235.23;239115;180;152732;-60
2024/03/29 10:15:14;;;;;;;0.80;0.40;;;;;;;17.30;32.97;98232.39;239056;180;136567;-58
2024/03/29 10:20:18;;;;;;;2.50;1.70;;;;;;;17.57;31.79;98229.30;239090;180;137403;-58
2024/03/29 10:25:21;;;;;;;0.60;0.40;;;;;;;17.87;29.08;98230.19;239101;180;153211;-59
2024/03/29 10:30:25;;;;;;;1.90;0.60;;;;;;;18.00;28.97;98234.77;239050;180;137698;-60
2024/03/29 10:35:28;;;;;;;0.80;0.30;;;;;;;18.16;28.63;98232.90;239119;180;137917;-58
2024/03/29 10:40:32;;;;;;;0.70;0.40;;;;;;;18.34;28.60;98224.71;239105;180;151268;-59
2024/03/29 10:45:36;;;;;;;5.70;3.30;;;;;;;18.52;28.49;98223.60;238834;178;137652;-61
2024/03/29 10:50:41;;;;;;;0.90;0.50;;;;;;;18.65;28.22;98217.19;239140;180;136850;-59
2024/03/29 10:55:44;;;;;;;2.30;0.50;;;;;;;18.91;29.05;98209.59;239159;177;151334;-61
2024/03/29 11:00:48;;;;;;;19.30;12.60;;;;;;;19.25;29.08;98204.52;239016;180;136901;-63
2024/03/29 11:05:52;;;;;;;3.00;0.80;;;;;;;19.58;28.86;98200.81;239126;180;137185;-61
2024/03/29 11:11:00;;;;;;;2.40;1.10;;;;;;;19.78;30.00;98186.90;239131;180;151738;-62
2024/03/29 11:16:04;;;;;;;3.30;1.40;;;;;;;19.93;30.89;98171.01;239169;180;139267;-62
2024/03/29 11:21:09;;;;;;;3.60;2.40;;;;;;;20.21;30.38;98155.52;238973;180;138038;-63
2024/03/29 11:26:12;;;;;;;1.50;0.70;;;;;;;20.41;29.86;98147.77;239024;177;151522;-61
2024/03/29 11:31:16;;;;;;;1.20;0.50;;;;;;;20.68;29.11;98143.56;239098;180;136954;-62
2024/03/29 11:36:25;;;;;;;14.00;9.80;;;;;;;21.06;30.30;98128.86;239018;180;136898;-58
2024/03/29 11:41:29;;;;;;;13.20;6.50;;;;;;;21.36;29.48;98121.73;239055;180;151496;-56
2024/03/29 11:46:35;;;;;;;1.10;0.60;;;;;;;21.51;26.71;98114.77;238934;168;136972;-56
2024/03/29 11:51:38;;;;;;;1.50;0.60;;;;;;;21.47;24.60;98112.39;239084;180;137429;-61
2024/03/29 11:56:44;;;;;;;1.00;0.30;;;;;;;21.51;24.61;98096.56;239075;180;151412;-64
2024/03/29 12:01:47;;;;;;;0.80;0.40;;;;;;;21.57;24.00;98092.83;239068;180;137573;-60
2024/03/29 12:06:50;;;;;;;2.90;0.40;;;;;;;21.63;23.61;98079.69;239124;180;138102;-66
2024/03/29 12:11:53;;;;;;;0.80;0.20;;;;;;;21.72;24.04;98080.48;239067;180;151346;-54
2024/03/29 12:16:56;;;;;;;1.70;0.40;;;;;;;21.90;24.06;98073.45;239038;180;138377;-54
2024/03/29 12:21:59;;;;;;;86.40;56.00;;;;;;;22.01;23.57;98062.16;239050;180;137932;-56
2024/03/29 12:27:04;;;;;;;6.80;4.20;;;;;;;22.12;23.58;98044.61;239018;180;152447;-56
2024/03/29 12:32:08;;;;;;;3.10;1.80;;;;;;;22.12;23.37;98044.92;239090;177;137359;-57
2024/03/29 12:37:12;;;;;;;3.40;0.60;;;;;;;22.24;23.33;98045.02;239095;180;136898;-54
2024/03/29 12:42:15;;;;;;;1.00;0.70;;;;;;;22.37;23.39;98046.86;239085;180;152358;-56
2024/03/29 12:47:18;;;;;;;6.40;0.50;;;;;;;22.48;23.34;98032.33;239097;180;136917;-55
2024/03/29 12:52:21;;;;;;;0.80;0.50;;;;;;;22.54;22.97;98035.86;239137;180;137506;-55
2024/03/29 12:57:24;;;;;;;4.90;2.10;;;;;;;22.58;22.56;98038.58;239021;180;151638;-58
2024/03/29 13:02:27;;;;;;;1.70;1.10;;;;;;;22.63;22.94;98046.42;239134;180;137204;-56
2024/03/29 13:07:31;;;;;;;2.60;1.60;;;;;;;22.73;22.76;98036.27;239086;180;137363;-56
2024/03/29 13:12:34;;;;;;;2.30;0.80;;;;;;;22.86;23.25;98022.42;239055;180;151037;-55
2024/03/29 13:17:37;;;;;;;1.10;0.50;;;;;;;22.91;23.12;98014.77;238992;180;137514;-55
2024/03/29 13:22:46;;;;;;;0.70;0.60;;;;;;;22.98;23.35;98007.92;239101;180;137517;-59
2024/03/29 13:27:54;;;;;;;0.90;0.30;;;;;;;23.23;23.51;98002.85;239049;180;152076;-56
2024/03/29 13:32:57;;;;;;;17.80;13.20;;;;;;;23.34;23.14;98002.97;239058;180;138226;-53
2024/03/29 13:38:00;;;;;;;3.70;1.00;;;;;;;23.42;23.07;98010.33;238990;180;137132;-54
2024/03/29 13:43:04;;;;;;;2.80;0.50;;;;;;;23.24;23.28;98010.10;239088;180;151419;-61
2024/03/29 13:48:07;;;;;;;1.60;0.50;;;;;;;23.22;24.34;98014.70;239024;180;140050;-61
2024/03/29 13:53:10;;;;;;;1.50;0.70;;;;;;;23.50;23.89;98015.95;239139;180;137823;-62
2024/03/29 13:58:13;;;;;;;1.80;0.40;;;;;;;23.58;23.90;98018.45;239056;180;151288;-59
2024/03/29 14:03:17;;;;;;;2.20;0.70;;;;;;;23.53;24.06;98007.52;239047;178;137993;-58
2024/03/29 14:08:20;;;;;;;2.30;0.70;;;;;;;23.27;24.72;98005.73;239072;179;136637;-59
2024/03/29 14:13:23;;;;;;;2.70;1.00;;;;;;;22.87;24.81;97994.31;239078;180;152451;-58
2024/03/29 14:18:26;;;;;;;3.10;0.60;;;;;;;22.42;25.81;98000.85;239037;180;137525;-59
2024/03/29 14:23:29;;;;;;;1.50;0.70;;;;;;;22.12;26.74;98000.24;239080;180;138104;-59
2024/03/29 14:28:32;;;;;;;59.20;45.60;;;;;;;21.96;27.33;98000.33;239002;173;151223;-57
2024/03/29 14:33:36;;;;;;;6.00;4.40;;;;;;;21.85;27.61;98006.02;239050;180;136899;-59
2024/03/29 14:38:39;;;;;;;3.80;2.40;;;;;;;21.67;27.21;98007.06;239077;177;137780;-59
2024/03/29 14:43:44;;;;;;;3.40;0.90;;;;;;;21.45;28.00;98007.73;239078;180;151923;-59
2024/03/29 14:48:47;;;;;;;4.30;0.80;;;;;;;21.34;27.94;98008.41;239077;176;137380;-58
2024/03/29 14:53:50;;;;;;;3.60;0.80;;;;;;;21.18;28.32;98004.26;239092;180;137196;-59
2024/03/29 14:58:54;;;;;;;3.20;0.90;;;;;;;21.12;28.68;98020.13;239054;180;151275;-55
2024/03/29 15:03:58;;;;;;;3.70;0.90;;;;;;;21.02;28.71;98038.27;239016;180;136814;-58
2024/03/29 15:09:02;;;;;;;2.70;0.60;;;;;;;20.86;29.20;98036.41;239073;180;137951;-58
2024/03/29 15:14:06;;;;;;;2.80;1.00;;;;;;;20.79;29.51;98029.70;239048;180;151154;-59
2024/03/29 15:19:09;;;;;;;3.90;1.00;;;;;;;20.68;30.23;98027.67;238993;180;138487;-57
2024/03/29 15:24:12;;;;;;;8.50;7.10;;;;;;;20.55;30.83;98029.00;239039;173;137335;-58
2024/03/29 15:29:16;;;;;;;6.80;3.80;;;;;;;20.35;31.07;98023.70;239050;180;152882;-57
2024/03/29 15:34:19;;;;;;;27.70;24.80;;;;;;;20.22;31.63;98019.14;239063;180;140378;-58
2024/03/29 15:39:22;;;;;;;12.50;9.40;;;;;;;20.17;31.82;98023.91;239080;180;137845;-57
2024/03/29 15:44:25;;;;;;;6.50;1.70;;;;;;;20.05;32.16;98023.50;239104;180;152738;-58
2024/03/29 15:49:28;;;;;;;3.30;1.30;;;;;;;19.89;32.63;98029.71;238974;180;137921;-60
2024/03/29 15:54:31;;;;;;;2.70;1.10;;;;;;;19.74;32.94;98027.32;239101;176;137413;-59
2024/03/29 15:59:34;;;;;;;3.20;1.30;;;;;;;19.65;33.29;98026.23;239046;180;153124;-59
2024/03/29 16:04:37;;;;;;;4.30;1.20;;;;;;;19.63;33.61;98022.48;239049;180;137435;-59
2024/03/29 16:09:40;;;;;;;2.90;1.20;;;;;;;19.59;33.71;98023.46;239013;180;136622;-60
2024/03/29 16:14:44;;;;;;;10.80;7.90;;;;;;;19.52;34.08;98029.34;238520;177;151828;-57
2024/03/29 16:19:47;;;;;;;3.50;1.30;;;;;;;19.46;34.06;98032.40;239046;180;136860;-58
2024/03/29 16:24:50;;;;;;;5.00;1.50;;;;;;;19.36;34.24;98034.91;239077;180;137615;-61
2024/03/29 16:29:53;;;;;;;5.40;1.40;;;;;;;19.28;34.75;98030.76;239070;180;151818;-61
2024/03/29 16:34:56;;;;;;;2.80;1.10;;;;;;;19.21;34.93;98030.86;239133;180;137266;-60
2024/03/29 16:39:59;;;;;;;5.60;1.30;;;;;;;19.15;35.10;98035.00;239207;180;137256;-60
2024/03/29 16:45:03;;;;;;;92.10;77.50;;;;;;;19.10;35.47;98044.86;239083;177;151674;-61
2024/03/29 16:50:07;;;;;;;8.20;2.40;;;;;;;19.08;35.57;98044.64;239001;180;140760;-58
2024/03/29 16:55:10;;;;;;;5.60;1.80;;;;;;;19.01;35.83;98044.11;239030;180;136493;-57
2024/03/29 17:00:16;;;;;;;4.60;1.70;;;;;;;18.93;36.28;98046.25;238953;179;152014;-58
2024/03/29 17:05:19;;;;;;;4.80;1.70;;;;;;;18.82;36.73;98044.60;239011;176;136758;-57
2024/03/29 17:10:23;;;;;;;4.60;1.70;;;;;;;18.72;36.95;98039.31;239020;177;137103;-58
2024/03/29 17:15:26;;;;;;;4.30;1.60;;;;;;;18.61;37.20;98036.55;239062;180;151275;-57
2024/03/29 17:20:29;;;;;;;5.10;2.30;;;;;;;18.52;37.51;98040.20;239022;180;137470;-54
2024/03/29 17:25:32;;;;;;;8.60;2.40;;;;;;;18.44;38.15;98041.86;238985;180;138588;-57
2024/03/29 17:30:34;;;;;;;10.10;3.10;;;;;;;18.34;38.54;98049.61;239091;180;151128;-57
2024/03/29 17:35:38;;;;;;;9.60;3.90;;;;;;;18.26;38.83;98056.34;239011;180;137636;-57
2024/03/29 17:40:42;;;;;;;8.40;3.70;;;;;;;18.16;38.83;98060.02;239021;180;136641;-56
2024/03/29 17:45:45;;;;;;;10.20;4.90;;;;;;;18.06;39.22;98059.46;238831;177;151205;-58
2024/03/29 17:50:49;;;;;;;14.80;4.10;;;;;;;17.98;39.42;98058.20;238988;180;137750;-57
2024/03/29 17:55:52;;;;;;;8.40;4.10;;;;;;;17.93;39.65;98066.23;238991;180;137729;-57
2024/03/29 18:00:56;;;;;;;8.60;3.80;;;;;;;17.88;39.79;98072.21;239028;180;152318;-56
2024/03/29 18:06:00;;;;;;;191.40;151.00;;;;;;;17.82;40.35;98072.00;239032;180;137020;-57
2024/03/29 18:11:04;;;;;;;102.30;47.40;;;;;;;17.75;42.19;98078.64;239016;177;139018;-57
2024/03/29 18:16:07;;;;;;;20.50;6.30;;;;;;;17.62;41.84;98077.27;238998;180;151058;-56
2024/03/29 18:21:10;;;;;;;12.30;4.00;;;;;;;17.47;42.06;98081.55;239023;176;138622;-57
2024/03/29 18:26:13;;;;;;;15.40;4.30;;;;;;;17.30;42.43;98084.61;238965;180;138476;-54
2024/03/29 18:31:16;;;;;;;19.40;6.70;;;;;;;17.33;45.61;98086.23;238950;177;151479;-58
2024/03/29 18:36:19;;;;;;;14.40;4.80;;;;;;;17.29;43.36;98085.10;238955;180;138268;-58
2024/03/29 18:41:28;;;;;;;15.60;4.60;;;;;;;17.02;43.91;98095.45;238994;180;137822;-56
2024/03/29 18:46:31;;;;;;;15.70;4.60;;;;;;;16.81;44.09;98094.54;239084;177;151373;-55
2024/03/29 18:51:34;;;;;;;9.70;4.20;;;;;;;16.63;44.86;98086.19;239059;180;140837;-57
2024/03/29 18:56:37;;;;;;;17.40;5.30;;;;;;;16.47;45.30;98087.42;239058;180;140300;-57
2024/03/29 19:01:40;;;;;;;15.90;4.90;;;;;;;16.34;45.94;98083.55;238963;180;151277;-57
2024/03/29 19:06:43;;;;;;;27.70;6.00;;;;;;;16.20;46.62;98090.89;238941;180;137442;-56
2024/03/29 19:11:52;;;;;;;23.20;5.60;;;;;;;16.05;47.18;98089.84;238996;177;137903;-57
2024/03/29 19:16:58;;;;;;;27.60;5.40;;;;;;;15.94;47.51;98090.60;239004;180;151282;-58
2024/03/29 19:22:01;;;;;;;416.90;295.40;;;;;;;15.87;47.81;98083.65;238845;180;137674;-60
2024/03/29 19:27:04;;;;;;;34.90;13.00;;;;;;;15.86;48.30;98081.03;239059;180;137243;-56
2024/03/29 19:32:07;;;;;;;31.30;7.10;;;;;;;15.83;48.39;98082.89;238957;180;151346;-56
2024/03/29 19:37:10;;;;;;;23.10;5.30;;;;;;;15.79;48.59;98074.25;238943;180;137495;-63
2024/03/29 19:42:13;;;;;;;21.00;5.40;;;;;;;15.72;48.95;98071.46;239016;180;136994;-57
2024/03/29 19:47:17;;;;;;;23.60;5.30;;;;;;;15.68;49.74;98068.89;239039;176;152357;-60
2024/03/29 19:52:20;;;;;;;23.30;6.30;;;;;;;15.66;50.52;98076.05;239014;180;136949;-56
2024/03/29 19:57:24;;;;;;;18.30;5.10;;;;;;;15.61;50.66;98083.61;239002;180;140534;-58
2024/03/29 20:02:27;;;;;;;20.00;5.10;;;;;;;15.57;50.80;98080.61;239031;180;151299;-57
2024/03/29 20:07:31;;;;;;;32.50;5.80;;;;;;;15.54;50.77;98081.42;238939;180;138258;-56
2024/03/29 20:12:34;;;;;;;24.80;4.80;;;;;;;15.50;51.11;98082.55;239049;180;137434;-55
2024/03/29 20:17:37;;;;;;;29.00;4.40;;;;;;;15.49;51.26;98077.10;239029;180;151933;-56
2024/03/29 20:22:40;;;;;;;18.50;4.80;;;;;;;15.50;51.21;98079.84;238967;180;137698;-57
2024/03/29 20:27:43;;;;;;;17.90;3.90;;;;;;;15.52;51.43;98077.88;239001;180;136789;-57
2024/03/29 20:32:47;;;;;;;14.80;3.80;;;;;;;15.52;51.65;98077.38;239056;180;151618;-57
2024/03/29 20:37:52;;;;;;;16.80;4.20;;;;;;;15.54;51.53;98073.05;238999;180;136654;-54
2024/03/29 20:42:55;;;;;;;10.40;5.40;;;;;;;15.60;51.36;98078.00;239045;180;138034;-57
2024/03/29 20:48:03;;;;;;;10.30;4.10;;;;;;;15.73;50.53;98081.95;239002;180;151316;-57
2024/03/29 20:53:06;;;;;;;108.50;84.20;;;;;;;15.88;50.29;98079.23;239020;180;137144;-58
2024/03/29 20:58:10;;;;;;;21.50;10.10;;;;;;;15.98;49.73;98074.30;238951;180;137083;-56
2024/03/29 21:08:34;;;;;;;12.50;5.70;;;;;;;15.96;48.72;98072.48;238830;180;137162;-57
2024/03/29 21:13:40;;;;;;;10.80;5.30;;;;;;;15.94;48.41;98065.78;239065;180;139066;-57
2024/03/29 21:18:43;;;;;;;12.80;5.00;;;;;;;15.94;48.44;98068.26;239053;180;151241;-58
2024/03/29 21:23:47;;;;;;;11.80;5.10;;;;;;;15.87;48.59;98066.25;239081;180;137852;-62
2024/03/29 21:28:50;;;;;;;10.30;5.30;;;;;;;15.84;48.70;98067.20;239117;180;137600;-57
2024/03/29 21:33:53;;;;;;;14.50;5.50;;;;;;;15.83;48.78;98069.90;238979;180;151333;-57
2024/03/29 21:38:56;;;;;;;12.50;5.50;;;;;;;15.80;48.82;98072.11;239018;180;137766;-57
2024/03/29 21:43:59;;;;;;;16.10;6.10;;;;;;;15.73;49.03;98065.17;239183;172;136626;-57
2024/03/29 21:49:02;;;;;;;17.20;5.80;;;;;;;15.63;49.22;98063.72;239092;180;151112;-57
2024/03/29 21:54:05;;;;;;;16.10;5.90;;;;;;;15.52;49.60;98071.98;239113;180;137912;-56
2024/03/29 21:59:08;;;;;;;16.80;6.30;;;;;;;15.42;49.68;98080.54;239130;177;137035;-57
2024/03/29 22:04:12;;;;;;;13.50;6.80;;;;;;;15.33;50.08;98076.17;239066;180;151721;-57
2024/03/29 22:09:15;;;;;;;16.60;5.70;;;;;;;15.23;50.23;98070.50;239132;180;137512;-55
2024/03/29 22:14:18;;;;;;;17.80;6.90;;;;;;;15.13;50.28;98067.75;239181;180;139715;-56
2024/03/29 22:19:23;;;;;;;20.50;7.00;;;;;;;15.06;50.22;98067.02;239123;180;151293;-56
2024/03/29 22:24:26;;;;;;;17.80;6.50;;;;;;;14.97;50.22;98069.28;239126;179;137040;-58
2024/03/29 22:29:29;;;;;;;14.10;7.10;;;;;;;14.91;50.52;98067.72;239120;180;136798;-56
2024/03/29 22:34:32;;;;;;;18.80;7.80;;;;;;;14.83;50.76;98068.30;239114;179;152209;-58
2024/03/29 22:39:35;;;;;;;18.20;8.30;;;;;;;14.78;50.95;98069.67;239152;180;138134;-57
2024/03/29 22:44:38;;;;;;;26.70;9.50;;;;;;;14.72;51.19;98068.44;238993;180;136926;-57
2024/03/29 22:49:41;;;;;;;19.70;9.80;;;;;;;14.68;51.46;98067.64;239130;177;151080;-57
2024/03/29 22:54:44;;;;;;;20.10;9.80;;;;;;;14.62;51.62;98070.30;239124;180;136601;-57
2024/03/29 22:59:47;;;;;;;19.00;9.40;;;;;;;14.58;51.82;98069.94;238974;179;140616;-57
2024/03/29 23:04:50;;;;;;;26.30;9.90;;;;;;;14.48;51.99;98072.49;238919;180;151113;-57
2024/03/29 23:09:55;;;;;;;19.30;10.20;;;;;;;14.39;52.05;98069.56;238958;180;138354;-57
2024/03/29 23:14:58;;;;;;;22.10;12.50;;;;;;;14.32;52.89;98069.13;239106;180;137498;-56
2024/03/29 23:20:03;;;;;;;25.10;13.00;;;;;;;14.22;53.12;98069.36;239122;180;151406;-57
2024/03/29 23:25:07;;;;;;;18.20;12.00;;;;;;;14.10;53.67;98069.02;239198;177;138088;-56
2024/03/29 23:30:10;;;;;;;18.60;12.60;;;;;;;14.00;54.18;98064.95;239017;180;138106;-57
2024/03/29 23:35:13;;;;;;;17.20;11.80;;;;;;;13.90;54.44;98063.71;239017;180;153867;-56
2024/03/29 23:40:16;;;;;;;19.20;9.80;;;;;;;13.81;54.69;98059.39;239098;180;136885;-57
2024/03/29 23:45:19;;;;;;;14.80;9.10;;;;;;;13.74;54.83;98048.23;239128;180;138296;-56